| time (UTC) | temp F | wind direction | speed MPH | gust MPH | rain 1hr in | rain 24hr in | rain mn in | humidity % | barometer mb |
| 20260510060025 | 69 | 11 | 0.0 | 0.0 | 0.00 | 0.24 | 0.00 | 93 | 1010.6 |
| 20260510054510 | 70 | 10 | 0.0 | 0.0 | 0.00 | 0.24 | 0.00 | 93 | 1010.6 |
| 20260510053105 | 70 | 9 | 0.0 | 0.0 | 0.00 | 0.24 | 0.00 | 93 | 1010.8 |
| 20260510051550 | 70 | 9 | 0.0 | 0.0 | 0.00 | 0.24 | 0.00 | 93 | 1010.7 |
| 20260510050029 | 70 | 9 | 0.0 | 0.0 | 0.00 | 0.24 | 0.24 | 93 | 1010.7 |
| 20260510044507 | 71 | 9 | 0.0 | 0.0 | 0.00 | 0.24 | 0.24 | 93 | 1010.5 |
| 20260510043105 | 71 | 9 | 0.0 | 0.0 | 0.00 | 0.24 | 0.24 | 93 | 1010.5 |
| 20260510041544 | 71 | 9 | 0.0 | 0.0 | 0.00 | 0.24 | 0.24 | 92 | 1010.3 |
| 20260510040038 | 72 | 9 | 0.0 | 0.0 | 0.00 | 0.24 | 0.24 | 92 | 1010.2 |
| 20260510034515 | 72 | 9 | 0.0 | 0.0 | 0.00 | 0.24 | 0.24 | 91 | 1010.1 |
| 20260510033002 | 73 | 9 | 0.0 | 0.0 | 0.00 | 0.24 | 0.24 | 91 | 1010.0 |
| 20260510031553 | 73 | 9 | 0.0 | 0.0 | 0.00 | 0.24 | 0.24 | 90 | 1009.8 |
| 20260510030037 | 74 | 9 | 0.0 | 0.0 | 0.00 | 0.24 | 0.24 | 90 | 1009.6 |
| 20260510024523 | 75 | 9 | 0.0 | 0.0 | 0.00 | 0.24 | 0.24 | 89 | 1009.4 |
| 20260510023009 | 75 | 9 | 0.0 | 0.0 | 0.00 | 0.24 | 0.24 | 88 | 1009.3 |
| 20260510021600 | 76 | 9 | 0.0 | 0.0 | 0.00 | 0.24 | 0.24 | 87 | 1009.1 |
| 20260510020046 | 76 | 9 | 0.0 | 1.0 | 0.00 | 0.24 | 0.24 | 86 | 1009.1 |
| 20260510014533 | 75 | 17 | 0.0 | 2.0 | 0.00 | 0.24 | 0.24 | 88 | 1008.9 |
| 20260510013023 | 76 | 11 | 0.0 | 2.0 | 0.00 | 0.24 | 0.24 | 89 | 1008.6 |
| 20260510011502 | 76 | 11 | 0.0 | 1.0 | 0.00 | 0.24 | 0.24 | 88 | 1008.5 |
| 20260510010053 | 77 | 10 | 0.0 | 1.0 | 0.00 | 0.24 | 0.24 | 87 | 1008.4 |
| 20260510004543 | 77 | 54 | 0.0 | 1.0 | 0.00 | 0.24 | 0.24 | 86 | 1008.2 |
| 20260510003025 | 78 | 57 | 0.0 | 2.0 | 0.00 | 0.24 | 0.24 | 83 | 1008.3 |
| 20260510001511 | 80 | 57 | 0.0 | 1.0 | 0.00 | 0.24 | 0.24 | 81 | 1008.2 |
| 20260510000104 | 80 | 57 | 0.0 | 2.0 | 0.00 | 0.24 | 0.24 | 79 | 1008.1 |
| 20260509234548 | 81 | 57 | 0.0 | 2.0 | 0.00 | 0.24 | 0.24 | 80 | 1008.0 |
| 20260509233035 | 80 | 57 | 0.0 | 1.0 | 0.00 | 0.24 | 0.24 | 83 | 1007.9 |
| 20260509231520 | 80 | 57 | 1.0 | 2.0 | 0.00 | 0.24 | 0.24 | 81 | 1007.9 |
| 20260509230009 | 78 | 57 | 0.0 | 2.0 | 0.00 | 0.24 | 0.24 | 85 | 1007.8 |
| 20260509224557 | 76 | 57 | 3.0 | 6.0 | 0.01 | 0.24 | 0.24 | 84 | 1007.9 |
| 20260509223042 | 73 | 239 | 2.0 | 5.0 | 0.20 | 0.24 | 0.24 | 91 | 1007.7 |
| 20260509221527 | 70 | 14 | 0.0 | 2.0 | 0.21 | 0.24 | 0.24 | 92 | 1007.7 |
| 20260509220018 | 69 | 67 | 0.0 | 5.0 | 0.21 | 0.24 | 0.24 | 84 | 1007.8 |
| 20260509214614 | 73 | 202 | 0.0 | 16.0 | 0.20 | 0.23 | 0.23 | 79 | 1007.7 |
| 20260509213038 | 81 | 268 | 3.0 | 11.0 | 0.01 | 0.04 | 0.04 | 72 | 1008.3 |
| 20260509211523 | 86 | 106 | 0.0 | 6.0 | 0.00 | 0.03 | 0.03 | 66 | 1008.0 |
| 20260509210009 | 88 | 130 | 1.0 | 6.0 | 0.00 | 0.03 | 0.03 | 65 | 1008.1 |
| 20260509204559 | 89 | 131 | 1.0 | 4.0 | 0.00 | 0.03 | 0.03 | 65 | 1008.3 |
| 20260509203057 | 86 | 171 | 0.0 | 4.0 | 0.00 | 0.03 | 0.03 | 69 | 1008.3 |
| 20260509201530 | 86 | 154 | 1.0 | 5.0 | 0.00 | 0.03 | 0.03 | 69 | 1008.7 |
| 20260509200016 | 86 | 78 | 3.0 | 7.0 | 0.00 | 0.03 | 0.03 | 67 | 1008.8 |
| 20260509194503 | 88 | 213 | 0.0 | 6.0 | 0.00 | 0.03 | 0.03 | 63 | 1009.0 |
| 20260509193057 | 89 | 159 | 2.0 | 6.0 | 0.00 | 0.03 | 0.03 | 65 | 1009.0 |
| 20260509191553 | 87 | 242 | 0.0 | 7.0 | 0.00 | 0.03 | 0.03 | 67 | 1009.4 |
| 20260509190006 | 88 | 209 | 1.0 | 5.0 | 0.00 | 0.03 | 0.03 | 64 | 1009.8 |
| 20260509184606 | 87 | 238 | 0.0 | 3.0 | 0.00 | 0.03 | 0.03 | 69 | 1009.9 |
| 20260509183057 | 85 | 146 | 1.0 | 2.0 | 0.00 | 0.03 | 0.03 | 72 | 1010.1 |
| 20260509181537 | 85 | 150 | 2.0 | 4.0 | 0.00 | 0.03 | 0.03 | 71 | 1010.2 |
| 20260509180022 | 85 | 249 | 0.0 | 3.0 | 0.00 | 0.03 | 0.03 | 71 | 1010.4 |
| 20260509174515 | 84 | 242 | 1.0 | 5.0 | 0.00 | 0.03 | 0.03 | 76 | 1010.5 |
| 20260509173101 | 84 | 221 | 2.0 | 6.0 | 0.00 | 0.03 | 0.03 | 74 | 1010.7 |
| 20260509171545 | 82 | 98 | 0.0 | 2.0 | 0.00 | 0.03 | 0.03 | 77 | 1010.9 |
| 20260509170032 | 82 | 5 | 2.0 | 6.0 | 0.00 | 0.03 | 0.03 | 78 | 1011.0 |
| 20260509164510 | 82 | 70 | 2.0 | 6.0 | 0.00 | 0.03 | 0.03 | 79 | 1011.0 |
| 20260509163110 | 81 | 169 | 0.0 | 4.0 | 0.00 | 0.03 | 0.03 | 83 | 1011.0 |
| 20260509161545 | 78 | 72 | 0.0 | 4.0 | 0.00 | 0.03 | 0.03 | 88 | 1011.0 |
| 20260509160029 | 77 | 134 | 0.0 | 4.0 | 0.00 | 0.03 | 0.03 | 90 | 1010.8 |
| 20260509154513 | 76 | 162 | 0.0 | 2.0 | 0.00 | 0.03 | 0.03 | 93 | 1011.1 |
| 20260509153118 | 75 | 105 | 0.0 | 4.0 | 0.00 | 0.03 | 0.03 | 94 | 1010.8 |
| 20260509151547 | 75 | 122 | 0.0 | 5.0 | 0.00 | 0.03 | 0.03 | 95 | 1010.8 |
| 20260509150033 | 74 | 16 | 0.0 | 4.0 | 0.00 | 0.03 | 0.03 | 96 | 1010.9 |
| 20260509144524 | 73 | 16 | 0.0 | 0.0 | 0.00 | 0.03 | 0.03 | 96 | 1011.4 |
| 20260509143007 | 73 | 16 | 0.0 | 1.0 | 0.00 | 0.03 | 0.03 | 96 | 1011.3 |
| 20260509141555 | 73 | 15 | 0.0 | 5.0 | 0.00 | 0.03 | 0.03 | 96 | 1011.1 |
| 20260509140041 | 73 | 5 | 0.0 | 2.0 | 0.00 | 0.03 | 0.03 | 96 | 1010.6 |
| 20260509134527 | 73 | 5 | 0.0 | 1.0 | 0.00 | 0.03 | 0.03 | 96 | 1010.7 |
| 20260509133013 | 72 | 5 | 0.0 | 1.0 | 0.00 | 0.03 | 0.03 | 96 | 1010.7 |
| 20260509131603 | 72 | 5 | 0.0 | 2.0 | 0.00 | 0.03 | 0.03 | 96 | 1011.0 |
| 20260509130103 | 73 | 11 | 0.0 | 4.0 | 0.00 | 0.03 | 0.03 | 96 | 1010.7 |
| 20260509124541 | 73 | 10 | 0.0 | 2.0 | 0.00 | 0.03 | 0.03 | 96 | 1010.3 |
| 20260509123021 | 72 | 16 | 0.0 | 0.0 | 0.00 | 0.03 | 0.03 | 96 | 1010.5 |
| 20260509121511 | 72 | 15 | 0.0 | 0.0 | 0.00 | 0.03 | 0.03 | 96 | 1010.8 |
| 20260509120058 | 72 | 15 | 0.0 | 0.0 | 0.00 | 0.03 | 0.03 | 96 | 1010.9 |
| 20260509114552 | 72 | 15 | 0.0 | 2.0 | 0.00 | 0.03 | 0.03 | 95 | 1010.8 |
| 20260509113028 | 72 | 9 | 1.0 | 5.0 | 0.00 | 0.03 | 0.03 | 95 | 1010.9 |
| 20260509111513 | 72 | 9 | 3.0 | 8.0 | 0.00 | 0.03 | 0.03 | 95 | 1010.7 |
| 20260509110109 | 72 | 9 | 5.0 | 7.0 | 0.00 | 0.03 | 0.03 | 95 | 1010.4 |
| 20260509104551 | 72 | 15 | 1.0 | 2.0 | 0.00 | 0.03 | 0.03 | 95 | 1010.3 |
| 20260509103041 | 72 | 5 | 1.0 | 2.0 | 0.03 | 0.03 | 0.03 | 95 | 1010.5 |
| 20260509101525 | 72 | 10 | 0.0 | 1.0 | 0.03 | 0.03 | 0.03 | 95 | 1010.7 |
| 20260509100007 | 72 | 10 | 0.0 | 2.0 | 0.03 | 0.03 | 0.03 | 95 | 1010.4 |
| 20260509094606 | 72 | 15 | 0.0 | 1.0 | 0.03 | 0.03 | 0.03 | 94 | 1010.3 |
| 20260509093048 | 72 | 5 | 0.0 | 6.0 | 0.00 | 0.00 | 0.00 | 94 | 1010.2 |
| 20260509091528 | 73 | 17 | 0.0 | 4.0 | 0.00 | 0.00 | 0.00 | 94 | 1010.2 |
| 20260509090020 | 73 | 14 | 0.0 | 0.0 | 0.00 | 0.00 | 0.00 | 94 | 1009.8 |
| 20260509084604 | 73 | 14 | 0.0 | 0.0 | 0.00 | 0.00 | 0.00 | 94 | 1009.9 |
| 20260509083056 | 73 | 14 | 0.0 | 2.0 | 0.00 | 0.00 | 0.00 | 94 | 1009.8 |
| 20260509081534 | 73 | 13 | 0.0 | 2.0 | 0.00 | 0.00 | 0.00 | 94 | 1010.1 |
| 20260509080021 | 73 | 13 | 0.0 | 1.0 | 0.00 | 0.00 | 0.00 | 93 | 1010.2 |
| 20260509074504 | 73 | 12 | 0.0 | 4.0 | 0.00 | 0.00 | 0.00 | 93 | 1009.8 |
| 20260509073056 | 73 | 10 | 1.0 | 3.0 | 0.00 | 0.00 | 0.00 | 93 | 1010.0 |
| 20260509071544 | 73 | 11 | 0.0 | 2.0 | 0.00 | 0.00 | 0.00 | 93 | 1010.1 |
| 20260509070027 | 73 | 13 | 1.0 | 5.0 | 0.00 | 0.00 | 0.00 | 93 | 1010.3 |
| 20260509064512 | 72 | 15 | 0.0 | 0.0 | 0.00 | 0.00 | 0.00 | 93 | 1010.2 |
| 20260509063103 | 72 | 12 | 0.0 | 0.0 | 0.00 | 0.00 | 0.00 | 93 | 1010.1 |
| 20260509061549 | 72 | 14 | 0.0 | 0.0 | 0.00 | 0.00 | 0.00 | 93 | 1010.0 |